Guapi, Guapi Airport (SKGP)

NameGuapi Airport
CityGuapi
CountryColombia
ICAOSKGP
IATAGPI
Altitude50 m
CoordinatesGoogle Map
Live Air TrafficLiveATC.net
METARSKGP 171400Z 15003KT 9999 SCT010 BKN090 27/26 A2982
2019-06-17 14:00:00 Wind: Southeast (150°) 1.54 m/s - Visibility: > 10000 m - Temperature: 27 °C - Dew point: 26 °C - Humidity: 94.3% - Pressure: 1009.82 hPa

Sorry, no flights used the airport in this database.